createdAt,value
2023-05-05T00:02:15.455Z,15.14
2023-05-05T00:04:42.267Z,15.10
2023-05-05T00:07:09.026Z,15.02
2023-05-05T00:09:35.785Z,15.07
2023-05-05T00:12:02.887Z,14.96
2023-05-05T00:14:29.775Z,15.04
2023-05-05T00:16:56.512Z,14.95
2023-05-05T00:19:23.101Z,14.84
2023-05-05T00:21:49.786Z,14.90
2023-05-05T00:24:16.860Z,14.96
2023-05-05T00:26:43.450Z,14.95
2023-05-05T00:29:10.340Z,14.88
2023-05-05T00:31:37.803Z,14.80
2023-05-05T00:34:04.668Z,14.87
2023-05-05T00:36:31.329Z,14.83
2023-05-05T00:38:57.876Z,14.87
2023-05-05T00:41:24.635Z,14.74
2023-05-05T00:43:52.535Z,14.78
2023-05-05T00:46:24.561Z,14.75
2023-05-05T00:48:51.900Z,14.74
2023-05-05T00:51:20.184Z,14.73
2023-05-05T00:53:47.845Z,14.68
2023-05-05T00:56:16.927Z,14.64
2023-05-05T00:58:44.132Z,14.61
2023-05-05T01:01:12.012Z,14.58
2023-05-05T01:03:40.244Z,14.55
2023-05-05T01:06:34.809Z,14.49
2023-05-05T01:09:19.553Z,14.39
2023-05-05T01:12:24.835Z,14.42
2023-05-05T01:15:26.713Z,14.38
2023-05-05T01:18:00.975Z,14.31
2023-05-05T01:20:47.384Z,14.32
2023-05-05T01:23:29.581Z,14.31
2023-05-05T01:26:14.869Z,14.22
2023-05-05T01:29:10.287Z,14.19
2023-05-05T01:31:52.522Z,14.21
2023-05-05T01:34:34.950Z,14.16
2023-05-05T01:37:18.311Z,14.19
2023-05-05T01:39:50.063Z,14.22
2023-05-05T01:42:18.677Z,14.09
2023-05-05T01:44:47.640Z,14.01
2023-05-05T01:47:19.676Z,14.00
2023-05-05T01:49:47.790Z,14.07
2023-05-05T01:52:16.137Z,14.08
2023-05-05T01:54:47.889Z,14.08
2023-05-05T01:57:15.663Z,13.87
2023-05-05T01:59:42.685Z,13.98
2023-05-05T02:02:12.377Z,14.00
2023-05-05T02:04:42.523Z,13.75
2023-05-05T02:07:11.482Z,13.95
2023-05-05T02:09:38.914Z,13.98
2023-05-05T02:12:07.216Z,13.94
2023-05-05T02:14:35.051Z,13.96
2023-05-05T02:17:02.216Z,13.96
2023-05-05T02:19:31.836Z,13.95
2023-05-05T02:21:58.502Z,14.00
2023-05-05T02:24:28.914Z,13.94
2023-05-05T02:26:58.086Z,13.79
2023-05-05T02:29:30.816Z,13.84
2023-05-05T02:32:06.895Z,13.84
2023-05-05T02:34:36.947Z,13.84
2023-05-05T02:37:07.631Z,13.67
2023-05-05T02:39:45.811Z,13.71
2023-05-05T02:42:18.575Z,13.78
2023-05-05T02:44:46.356Z,13.67
2023-05-05T02:47:13.394Z,13.77
2023-05-05T02:49:40.215Z,13.82
2023-05-05T02:52:06.865Z,13.61
2023-05-05T02:54:33.828Z,13.68
2023-05-05T02:57:01.488Z,13.68
2023-05-05T02:59:35.065Z,13.71
2023-05-05T03:02:17.014Z,13.73
2023-05-05T03:04:50.618Z,13.74
2023-05-05T03:07:42.644Z,13.74
2023-05-05T03:10:13.859Z,13.78
2023-05-05T03:12:48.426Z,13.85
2023-05-05T03:15:18.357Z,13.85
2023-05-05T03:17:46.637Z,13.80
2023-05-05T03:20:15.127Z,13.71
2023-05-05T03:22:41.737Z,13.55
2023-05-05T03:25:08.737Z,13.35
2023-05-05T03:27:37.996Z,13.35
2023-05-05T03:30:05.567Z,13.33
2023-05-05T03:32:32.429Z,13.18
2023-05-05T03:34:59.117Z,13.18
2023-05-05T03:37:25.681Z,13.22
2023-05-05T03:39:52.279Z,13.21
2023-05-05T03:42:18.821Z,13.27
2023-05-05T03:44:45.488Z,13.29
2023-05-05T03:47:12.089Z,13.28
2023-05-05T03:49:38.689Z,13.30
2023-05-05T03:52:05.641Z,13.34
2023-05-05T03:54:32.196Z,13.28
2023-05-05T03:56:59.049Z,13.34
2023-05-05T03:59:25.683Z,13.32
2023-05-05T04:01:52.513Z,13.39
2023-05-05T04:04:19.231Z,13.32
2023-05-05T04:06:45.934Z,13.31
2023-05-05T04:09:12.483Z,13.28
2023-05-05T04:11:39.083Z,13.35
2023-05-05T04:14:05.628Z,13.47
2023-05-05T04:16:32.234Z,13.46
2023-05-05T04:18:58.924Z,13.57
2023-05-05T04:21:25.617Z,13.61
2023-05-05T04:23:52.876Z,13.65
2023-05-05T04:26:19.598Z,13.73
2023-05-05T04:28:46.252Z,13.76
2023-05-05T04:31:13.113Z,13.89
2023-05-05T04:33:39.900Z,13.99
2023-05-05T04:36:06.813Z,14.05
2023-05-05T04:38:33.577Z,14.17
2023-05-05T04:41:00.611Z,14.27
2023-05-05T04:43:27.948Z,14.32
2023-05-05T04:45:57.802Z,14.39
2023-05-05T04:48:24.415Z,14.47
2023-05-05T04:50:51.463Z,14.45
2023-05-05T04:53:18.182Z,14.49
2023-05-05T04:55:44.852Z,14.56
2023-05-05T04:58:11.443Z,14.46
2023-05-05T05:00:38.136Z,14.79
2023-05-05T05:03:05.040Z,14.94
2023-05-05T05:05:31.711Z,15.06
2023-05-05T05:07:58.355Z,15.30
2023-05-05T05:10:24.957Z,15.44
2023-05-05T05:12:51.536Z,16.13
2023-05-05T05:15:18.102Z,16.66
2023-05-05T05:17:44.751Z,17.10
2023-05-05T05:20:11.768Z,17.49
2023-05-05T05:22:38.958Z,17.31
2023-05-05T05:25:05.913Z,17.71
2023-05-05T05:27:32.468Z,17.88
2023-05-05T05:29:59.032Z,17.99
2023-05-05T05:32:25.841Z,18.52
2023-05-05T05:34:52.461Z,18.80
2023-05-05T05:37:19.197Z,19.02
2023-05-05T05:39:51.529Z,19.29
2023-05-05T05:42:18.171Z,19.03
2023-05-05T05:44:44.767Z,19.34
2023-05-05T05:47:11.453Z,19.70
2023-05-05T05:49:38.095Z,19.93
2023-05-05T05:52:04.811Z,19.84
2023-05-05T05:54:32.889Z,20.54
2023-05-05T05:56:59.459Z,20.18
2023-05-05T05:59:26.035Z,20.26
2023-05-05T06:01:52.749Z,20.49
2023-05-05T06:04:19.307Z,21.12
2023-05-05T06:06:45.912Z,20.99
2023-05-05T06:09:13.013Z,21.22
2023-05-05T06:11:39.747Z,21.74
2023-05-05T06:14:06.355Z,22.14
2023-05-05T06:16:33.167Z,22.42
2023-05-05T06:19:00.029Z,22.66
2023-05-05T06:21:27.752Z,22.72
2023-05-05T06:23:54.345Z,22.75
2023-05-05T06:26:21.551Z,23.18
2023-05-05T06:28:48.177Z,23.01
2023-05-05T06:31:14.877Z,23.44
2023-05-05T06:33:44.042Z,23.60
2023-05-05T06:36:14.274Z,24.13
2023-05-05T06:38:45.718Z,24.14
2023-05-05T06:41:12.856Z,24.16
2023-05-05T06:43:39.807Z,24.21
2023-05-05T06:46:06.581Z,24.66
2023-05-05T06:48:33.221Z,24.86
2023-05-05T06:50:59.913Z,25.40
2023-05-05T06:53:26.538Z,25.22
2023-05-05T06:55:53.125Z,25.65
2023-05-05T06:58:21.101Z,25.69
2023-05-05T07:00:47.548Z,25.83
2023-05-05T07:03:14.453Z,26.14
2023-05-05T07:05:41.123Z,26.51
2023-05-05T07:08:09.088Z,26.63
2023-05-05T07:10:35.981Z,26.72
2023-05-05T07:13:03.012Z,26.92
2023-05-05T07:15:29.960Z,26.81
2023-05-05T07:17:57.269Z,26.63
2023-05-05T07:20:24.560Z,26.35
2023-05-05T07:22:51.256Z,26.67
2023-05-05T07:25:17.943Z,27.42
2023-05-05T07:27:44.761Z,27.59
2023-05-05T07:30:16.312Z,27.29
2023-05-05T07:32:44.175Z,27.06
2023-05-05T07:35:10.913Z,27.83
2023-05-05T07:37:37.595Z,27.55
2023-05-05T07:40:04.643Z,27.79
2023-05-05T07:42:31.270Z,28.08
2023-05-05T07:44:57.825Z,28.24
2023-05-05T07:47:24.594Z,27.83
2023-05-05T07:49:51.446Z,27.72
2023-05-05T07:52:18.077Z,27.96
2023-05-05T07:54:45.458Z,27.88
2023-05-05T07:57:12.074Z,28.08
2023-05-05T07:59:41.122Z,28.24
2023-05-05T08:02:07.731Z,28.30
2023-05-05T08:04:34.461Z,27.73
2023-05-05T08:07:01.198Z,27.31
2023-05-05T08:09:27.816Z,26.75
2023-05-05T08:11:54.658Z,27.05
2023-05-05T08:14:21.290Z,27.28
2023-05-05T08:16:48.948Z,28.00
2023-05-05T08:19:28.257Z,27.65
2023-05-05T08:21:56.094Z,28.57
2023-05-05T08:24:22.749Z,28.73
2023-05-05T08:26:49.404Z,29.01
2023-05-05T08:29:16.082Z,29.32
2023-05-05T08:31:42.721Z,29.32
2023-05-05T08:34:09.402Z,30.32
2023-05-05T08:36:36.056Z,29.65
2023-05-05T08:39:02.902Z,29.39
2023-05-05T08:41:29.501Z,29.96
2023-05-05T08:43:56.117Z,29.99
2023-05-05T08:46:23.862Z,29.76
2023-05-05T08:48:54.948Z,28.92
2023-05-05T08:51:22.080Z,29.94
2023-05-05T08:53:54.469Z,29.87
2023-05-05T08:56:22.091Z,29.09
2023-05-05T08:58:49.611Z,29.79
2023-05-05T09:01:17.029Z,30.58
2023-05-05T09:03:44.907Z,30.14
2023-05-05T09:06:11.530Z,30.92
2023-05-05T09:08:39.026Z,31.30
2023-05-05T09:11:06.201Z,29.14
2023-05-05T09:13:33.058Z,29.92
2023-05-05T09:15:59.793Z,30.21
2023-05-05T09:18:26.844Z,29.90
2023-05-05T09:20:53.510Z,29.49
2023-05-05T09:23:21.386Z,30.44
2023-05-05T09:26:03.880Z,30.19
2023-05-05T09:28:30.497Z,30.12
2023-05-05T09:31:15.442Z,30.91
2023-05-05T09:33:42.307Z,31.29
2023-05-05T09:36:08.876Z,31.42
2023-05-05T09:38:36.770Z,30.75
2023-05-05T09:41:05.363Z,31.09
2023-05-05T09:43:50.126Z,30.81
2023-05-05T09:46:16.831Z,30.26
2023-05-05T09:48:43.454Z,29.30
2023-05-05T09:51:10.148Z,30.62
2023-05-05T09:53:41.563Z,30.86
2023-05-05T09:56:08.360Z,30.98
2023-05-05T09:58:34.939Z,31.17
2023-05-05T10:01:01.682Z,31.17
2023-05-05T10:03:28.278Z,31.07
2023-05-05T10:05:56.874Z,31.44
2023-05-05T10:08:26.418Z,30.89
2023-05-05T10:11:01.911Z,30.32
2023-05-05T10:13:30.104Z,30.39
2023-05-05T10:15:57.958Z,29.33
2023-05-05T10:18:27.050Z,28.36
2023-05-05T10:21:04.148Z,28.54
2023-05-05T10:23:48.985Z,27.76
2023-05-05T10:26:18.650Z,27.83
2023-05-05T10:28:50.545Z,28.61
2023-05-05T10:31:25.765Z,28.54
2023-05-05T10:34:03.913Z,28.51
2023-05-05T10:36:31.893Z,28.42
2023-05-05T10:39:00.577Z,28.29
2023-05-05T10:41:28.582Z,28.10
2023-05-05T10:43:56.601Z,27.69
2023-05-05T10:46:24.197Z,27.76
2023-05-05T10:49:02.592Z,27.66
2023-05-05T10:51:54.559Z,27.49
2023-05-05T10:54:32.637Z,27.57
2023-05-05T10:57:02.653Z,26.69
2023-05-05T10:59:38.665Z,26.82
2023-05-05T11:02:28.325Z,26.41
2023-05-05T11:05:23.324Z,27.20
2023-05-05T11:07:52.862Z,27.12
2023-05-05T11:10:20.976Z,26.49
2023-05-05T11:12:57.909Z,25.85
2023-05-05T11:15:30.550Z,26.36
2023-05-05T11:17:58.423Z,26.02
2023-05-05T11:20:48.128Z,26.72
2023-05-05T11:23:20.503Z,26.99
2023-05-05T11:25:48.093Z,27.20
2023-05-05T11:28:16.432Z,26.73
2023-05-05T11:30:55.294Z,26.63
2023-05-05T11:33:29.247Z,26.85
2023-05-05T11:36:04.254Z,26.98
2023-05-05T11:38:54.631Z,27.00
2023-05-05T11:41:33.566Z,27.12
2023-05-05T11:44:19.738Z,26.35
2023-05-05T11:46:52.500Z,27.00
2023-05-05T11:49:39.041Z,27.38
2023-05-05T11:52:08.132Z,27.45
2023-05-05T11:54:37.738Z,27.33
2023-05-05T11:57:07.187Z,27.55
2023-05-05T11:59:53.237Z,27.44
2023-05-05T12:02:20.573Z,27.11
2023-05-05T12:04:49.607Z,27.21
2023-05-05T12:07:22.496Z,27.01
2023-05-05T12:09:50.084Z,27.50
2023-05-05T12:12:17.288Z,27.44
2023-05-05T12:14:52.454Z,27.57
2023-05-05T12:17:20.701Z,27.47
2023-05-05T12:19:54.969Z,27.35
2023-05-05T12:22:26.087Z,27.61
2023-05-05T12:24:57.114Z,27.41
2023-05-05T12:27:24.543Z,27.44
2023-05-05T12:29:51.506Z,27.42
2023-05-05T12:32:22.693Z,27.49
2023-05-05T12:34:53.849Z,27.16
2023-05-05T12:37:21.836Z,27.56
2023-05-05T12:39:49.948Z,27.25
2023-05-05T12:42:16.757Z,27.23
2023-05-05T12:44:44.402Z,27.27
2023-05-05T12:47:12.405Z,26.94
2023-05-05T12:49:49.726Z,27.20
2023-05-05T12:52:16.872Z,26.61
2023-05-05T12:55:01.661Z,27.24
2023-05-05T12:57:28.256Z,27.27
2023-05-05T12:59:54.931Z,27.47
2023-05-05T13:02:21.661Z,27.44
2023-05-05T13:04:50.563Z,27.49
2023-05-05T13:07:19.756Z,27.40
2023-05-05T13:09:50.693Z,27.58
2023-05-05T13:12:17.953Z,27.69
2023-05-05T13:14:45.349Z,27.55
2023-05-05T13:17:12.302Z,27.40
2023-05-05T13:19:42.796Z,26.98
2023-05-05T13:22:13.026Z,26.61
2023-05-05T13:24:50.684Z,26.94
2023-05-05T13:27:19.016Z,27.00
2023-05-05T13:29:46.172Z,26.81
2023-05-05T13:32:12.831Z,26.74
2023-05-05T13:34:39.663Z,26.93
2023-05-05T13:37:06.749Z,27.13
2023-05-05T13:39:33.334Z,26.82
2023-05-05T13:42:00.007Z,26.19
2023-05-05T13:44:26.631Z,26.04
2023-05-05T13:46:53.346Z,26.10
2023-05-05T13:49:20.255Z,25.83
2023-05-05T13:51:47.434Z,26.12
2023-05-05T13:54:14.117Z,26.14
2023-05-05T13:56:40.898Z,25.85
2023-05-05T13:59:07.516Z,26.52
2023-05-05T14:01:34.199Z,26.70
2023-05-05T14:04:03.656Z,26.23
2023-05-05T14:06:32.612Z,26.70
2023-05-05T14:08:59.376Z,26.95
2023-05-05T14:11:26.042Z,26.94
2023-05-05T14:13:52.879Z,26.82
2023-05-05T14:16:19.605Z,26.62
2023-05-05T14:18:46.270Z,26.68
2023-05-05T14:21:12.982Z,26.57
2023-05-05T14:23:39.629Z,26.47
2023-05-05T14:26:06.299Z,26.68
2023-05-05T14:28:32.910Z,26.74
2023-05-05T14:30:59.582Z,27.11
2023-05-05T14:33:26.633Z,27.17
2023-05-05T14:35:53.290Z,27.23
2023-05-05T14:38:19.987Z,27.51
2023-05-05T14:40:46.690Z,26.60
2023-05-05T14:43:13.375Z,26.27
2023-05-05T14:45:40.112Z,26.32
2023-05-05T14:48:06.878Z,26.24
2023-05-05T14:50:33.502Z,26.25
2023-05-05T14:53:00.582Z,26.17
2023-05-05T14:55:27.289Z,25.93
2023-05-05T14:57:53.893Z,26.00
2023-05-05T15:00:20.671Z,26.28
2023-05-05T15:02:48.408Z,26.02
2023-05-05T15:05:15.336Z,25.91
2023-05-05T15:07:41.967Z,26.10
2023-05-05T15:10:09.044Z,26.32
2023-05-05T15:12:35.838Z,26.31
2023-05-05T15:15:02.669Z,26.52
2023-05-05T15:17:30.850Z,26.53
2023-05-05T15:19:57.500Z,26.74
2023-05-05T15:22:24.241Z,26.73
2023-05-05T15:24:50.973Z,26.47
2023-05-05T15:27:18.309Z,26.41
2023-05-05T15:29:45.104Z,26.17
2023-05-05T15:32:11.914Z,26.28
2023-05-05T15:34:38.574Z,26.43
2023-05-05T15:37:05.213Z,26.43
2023-05-05T15:39:31.823Z,26.32
2023-05-05T15:42:03.747Z,26.09
2023-05-05T15:44:31.238Z,26.21
2023-05-05T15:46:57.945Z,26.38
2023-05-05T15:49:24.682Z,26.33
2023-05-05T15:51:51.289Z,26.16
2023-05-05T15:54:17.983Z,26.04
2023-05-05T15:56:44.709Z,26.12
2023-05-05T15:59:11.326Z,26.21
2023-05-05T16:01:38.061Z,26.14
2023-05-05T16:04:04.923Z,26.17
2023-05-05T16:06:31.824Z,26.17
2023-05-05T16:08:58.752Z,25.88
2023-05-05T16:11:26.528Z,25.76
2023-05-05T16:13:53.697Z,25.66
2023-05-05T16:16:20.435Z,25.52
2023-05-05T16:18:47.119Z,25.53
2023-05-05T16:21:14.088Z,25.51
2023-05-05T16:23:40.795Z,25.47
2023-05-05T16:26:07.385Z,25.58
2023-05-05T16:28:34.412Z,25.35
2023-05-05T16:31:02.272Z,25.30
2023-05-05T16:33:29.245Z,24.94
2023-05-05T16:35:56.248Z,24.94
2023-05-05T16:38:22.914Z,24.84
2023-05-05T16:40:49.695Z,24.99
2023-05-05T16:43:16.450Z,25.08
2023-05-05T16:45:43.611Z,25.07
2023-05-05T16:48:10.451Z,24.96
2023-05-05T16:50:37.109Z,24.65
2023-05-05T16:53:03.807Z,24.62
2023-05-05T16:55:30.484Z,24.57
2023-05-05T16:57:57.304Z,24.63
2023-05-05T17:00:23.911Z,24.60
2023-05-05T17:02:50.557Z,24.65
2023-05-05T17:05:17.816Z,24.59
2023-05-05T17:07:45.904Z,24.64
2023-05-05T17:10:12.627Z,24.60
2023-05-05T17:12:39.302Z,24.57
2023-05-05T17:15:07.007Z,24.41
2023-05-05T17:17:33.875Z,24.38
2023-05-05T17:20:03.063Z,24.43
2023-05-05T17:22:29.810Z,24.25
2023-05-05T17:24:56.617Z,24.20
2023-05-05T17:27:23.201Z,24.12
2023-05-05T17:29:49.878Z,24.19
2023-05-05T17:32:16.460Z,24.02
2023-05-05T17:34:43.052Z,23.98
2023-05-05T17:37:09.783Z,23.87
2023-05-05T17:39:36.413Z,23.80
2023-05-05T17:42:04.312Z,23.81
2023-05-05T17:44:32.591Z,23.76
2023-05-05T17:46:59.350Z,23.66
2023-05-05T17:49:26.357Z,23.49
2023-05-05T17:51:53.030Z,23.50
2023-05-05T17:54:19.658Z,23.44
2023-05-05T17:56:46.406Z,23.46
2023-05-05T17:59:13.028Z,23.39
2023-05-05T18:01:39.725Z,23.28
2023-05-05T18:04:06.353Z,23.21
2023-05-05T18:06:32.963Z,23.13
2023-05-05T18:08:59.610Z,23.05
2023-05-05T18:11:30.930Z,22.98
2023-05-05T18:13:57.677Z,22.98
2023-05-05T18:16:24.258Z,22.85
2023-05-05T18:18:50.964Z,22.82
2023-05-05T18:21:17.587Z,22.76
2023-05-05T18:23:44.274Z,22.70
2023-05-05T18:26:10.989Z,22.59
2023-05-05T18:28:37.661Z,22.51
2023-05-05T18:31:04.392Z,22.41
2023-05-05T18:33:31.120Z,22.36
2023-05-05T18:35:57.993Z,22.30
2023-05-05T18:38:24.849Z,22.31
2023-05-05T18:40:51.548Z,22.19
2023-05-05T18:43:18.211Z,22.09
2023-05-05T18:45:44.920Z,22.05
2023-05-05T18:48:11.902Z,21.99
2023-05-05T18:50:38.696Z,21.89
2023-05-05T18:53:05.358Z,21.95
2023-05-05T18:55:31.927Z,21.86
2023-05-05T18:57:58.539Z,21.66
2023-05-05T19:00:25.353Z,21.75
2023-05-05T19:02:52.079Z,21.57
2023-05-05T19:05:18.828Z,21.50
2023-05-05T19:07:45.796Z,21.34
2023-05-05T19:10:12.491Z,21.17
2023-05-05T19:12:39.192Z,21.15
2023-05-05T19:15:06.976Z,21.04
2023-05-05T19:17:34.027Z,20.89
2023-05-05T19:20:00.722Z,20.94
2023-05-05T19:22:27.336Z,20.83
2023-05-05T19:24:53.986Z,20.78
2023-05-05T19:27:21.889Z,20.74
2023-05-05T19:29:52.735Z,20.65
2023-05-05T19:32:20.904Z,20.55
2023-05-05T19:34:48.028Z,20.46
2023-05-05T19:37:14.630Z,20.45
2023-05-05T19:39:44.393Z,20.43
2023-05-05T19:42:11.434Z,20.28
2023-05-05T19:44:38.120Z,20.31
2023-05-05T19:47:05.190Z,20.20
2023-05-05T19:49:32.082Z,20.17
2023-05-05T19:51:59.357Z,20.17
2023-05-05T19:54:26.837Z,20.10
2023-05-05T19:56:55.212Z,19.89
2023-05-05T19:59:22.041Z,19.80
2023-05-05T20:01:48.798Z,19.69
2023-05-05T20:04:15.537Z,19.68
2023-05-05T20:06:42.205Z,19.55
2023-05-05T20:09:08.873Z,19.37
2023-05-05T20:11:35.907Z,19.35
2023-05-05T20:14:02.614Z,19.31
2023-05-05T20:16:29.322Z,19.13
2023-05-05T20:18:56.147Z,19.19
2023-05-05T20:21:23.234Z,19.06
2023-05-05T20:23:49.956Z,19.08
2023-05-05T20:26:17.055Z,19.12
2023-05-05T20:28:45.461Z,19.08
2023-05-05T20:31:14.175Z,19.06
2023-05-05T20:33:40.837Z,19.02
2023-05-05T20:36:07.602Z,18.95
2023-05-05T20:38:34.185Z,18.87
2023-05-05T20:41:00.766Z,18.82
2023-05-05T20:43:27.668Z,18.77
2023-05-05T20:45:54.258Z,18.70
2023-05-05T20:48:21.093Z,18.78
2023-05-05T20:50:47.685Z,18.76
2023-05-05T20:53:14.977Z,18.71
2023-05-05T20:55:41.700Z,18.73
2023-05-05T20:58:08.243Z,18.76
2023-05-05T21:00:34.991Z,18.75
2023-05-05T21:03:02.886Z,18.60
2023-05-05T21:05:30.848Z,18.53
2023-05-05T21:07:59.186Z,18.40
2023-05-05T21:10:27.434Z,18.25
2023-05-05T21:12:54.226Z,18.03
2023-05-05T21:15:20.922Z,17.93
2023-05-05T21:17:47.957Z,17.98
2023-05-05T21:20:14.712Z,18.00
2023-05-05T21:22:41.428Z,18.03
2023-05-05T21:25:19.722Z,18.10
2023-05-05T21:27:49.817Z,18.24
2023-05-05T21:30:17.118Z,18.29
2023-05-05T21:32:44.210Z,18.34
2023-05-05T21:35:10.814Z,18.32
2023-05-05T21:37:39.204Z,18.28
2023-05-05T21:40:10.782Z,18.16
2023-05-05T21:42:37.679Z,18.09
2023-05-05T21:45:04.626Z,17.96
2023-05-05T21:47:31.520Z,17.83
2023-05-05T21:49:59.099Z,17.77
2023-05-05T21:52:27.806Z,17.73
2023-05-05T21:54:54.256Z,17.80
2023-05-05T21:57:20.909Z,17.65
2023-05-05T21:59:48.542Z,17.52
2023-05-05T22:02:15.180Z,17.50
2023-05-05T22:04:42.213Z,17.41
2023-05-05T22:07:09.823Z,17.26
2023-05-05T22:09:36.785Z,17.27
2023-05-05T22:12:03.549Z,17.23
2023-05-05T22:14:30.183Z,17.21
2023-05-05T22:16:56.878Z,17.15
2023-05-05T22:19:23.523Z,17.29
2023-05-05T22:21:50.275Z,17.20
2023-05-05T22:24:16.957Z,17.30
2023-05-05T22:26:43.699Z,17.33
2023-05-05T22:29:11.586Z,17.25
2023-05-05T22:31:38.542Z,17.00
2023-05-05T22:34:05.198Z,17.04
2023-05-05T22:36:31.857Z,16.91
2023-05-05T22:38:58.572Z,16.76
2023-05-05T22:41:25.304Z,16.71
2023-05-05T22:43:51.862Z,16.79
2023-05-05T22:46:18.594Z,16.66
2023-05-05T22:48:45.347Z,16.70
2023-05-05T22:51:11.942Z,16.74
2023-05-05T22:53:39.324Z,16.75
2023-05-05T22:56:06.334Z,16.80
2023-05-05T22:58:33.418Z,16.89
2023-05-05T23:01:00.020Z,16.98
2023-05-05T23:03:26.736Z,16.97
2023-05-05T23:05:53.314Z,16.79
2023-05-05T23:08:20.552Z,16.74
2023-05-05T23:10:47.219Z,16.76
2023-05-05T23:13:13.880Z,16.71
2023-05-05T23:15:41.239Z,16.77
2023-05-05T23:18:08.053Z,16.79
2023-05-05T23:20:34.847Z,16.75
2023-05-05T23:23:01.469Z,16.70
2023-05-05T23:25:28.091Z,16.71
2023-05-05T23:27:54.731Z,16.62
2023-05-05T23:30:21.523Z,16.57
2023-05-05T23:32:48.168Z,16.51
2023-05-05T23:35:15.019Z,16.49
2023-05-05T23:37:41.651Z,16.31
2023-05-05T23:40:08.850Z,16.35
2023-05-05T23:42:35.565Z,16.40
2023-05-05T23:45:02.322Z,16.38
2023-05-05T23:47:28.898Z,16.13
2023-05-05T23:49:55.506Z,16.29
2023-05-05T23:52:22.574Z,16.28
2023-05-05T23:54:49.150Z,16.34
2023-05-05T23:57:16.044Z,16.29
2023-05-05T23:59:42.644Z,16.37
